Time;durP1;ratioP1;P1;durP2;ratioP2;P2;SDS_P1;SDS_P2;PMS_P1;PMS_P2;Temp;Humidity;BMP_temperature;BMP_pressure;BME280_temperature;BME280_humidity;BME280_pressure;Samples;Min_cycle;Max_cycle;Signal;HPM_P1;HPM_P2
2021/07/06 00:02:18;;;;;;;3.60;2.65;;;;;;;22.09;59.84;100451.72;4953059;28;115368;-67
2021/07/06 00:04:48;;;;;;;3.45;2.60;;;;;;;22.10;59.78;100448.06;4956361;28;123491;-67
2021/07/06 00:07:17;;;;;;;4.40;2.53;;;;;;;22.12;59.79;100440.66;4954174;28;126551;-67
2021/07/06 00:09:45;;;;;;;4.47;2.40;;;;;;;22.14;59.78;100438.63;4954640;28;115063;-67
2021/07/06 00:12:12;;;;;;;4.70;2.63;;;;;;;22.15;59.84;100434.91;4950501;28;113821;-67
2021/07/06 00:14:39;;;;;;;2.95;2.30;;;;;;;22.16;60.02;100436.63;4950833;28;123073;-67
2021/07/06 00:17:07;;;;;;;3.35;2.47;;;;;;;22.17;59.73;100432.94;4971513;28;123755;-66
2021/07/06 00:19:34;;;;;;;4.07;2.13;;;;;;;22.19;59.74;100425.53;4954220;28;114807;-67
2021/07/06 00:22:02;;;;;;;2.90;2.10;;;;;;;22.21;59.69;100423.53;4949225;28;113965;-67
2021/07/06 00:24:29;;;;;;;3.08;2.05;;;;;;;22.20;59.65;100411.03;4956195;28;124247;-67
2021/07/06 00:26:57;;;;;;;2.85;2.08;;;;;;;22.23;59.70;100405.34;4952486;28;124179;-66
2021/07/06 00:29:24;;;;;;;2.53;1.77;;;;;;;22.24;59.68;100407.03;4954167;28;114557;-67
2021/07/06 00:31:51;;;;;;;2.17;1.80;;;;;;;22.26;59.61;100409.59;4962723;28;112925;-67
2021/07/06 00:34:18;;;;;;;4.35;1.90;;;;;;;22.26;59.55;100405.03;4957850;28;124399;-67
2021/07/06 00:36:45;;;;;;;2.88;1.67;;;;;;;22.26;59.56;100405.03;4950874;28;125901;-67
2021/07/06 00:39:13;;;;;;;2.17;1.80;;;;;;;22.27;59.46;100406.75;4959289;28;114427;-67
2021/07/06 00:41:40;;;;;;;2.70;2.08;;;;;;;22.26;59.34;100407.75;4957336;28;113934;-66
2021/07/06 00:44:18;;;;;;;2.95;2.30;;;;;;;22.26;59.59;100399.66;4956288;28;124376;-67
2021/07/06 00:46:46;;;;;;;2.33;1.75;;;;;;;22.27;59.52;100404.06;4950868;28;123926;-67
2021/07/06 00:49:14;;;;;;;3.60;2.10;;;;;;;22.27;59.50;100401.34;4952862;28;115377;-67
2021/07/06 00:51:41;;;;;;;3.45;1.90;;;;;;;22.29;59.60;100404.75;4959714;28;113780;-66
2021/07/06 00:54:10;;;;;;;2.83;1.77;;;;;;;22.29;59.23;100396.66;4953218;28;124270;-66
2021/07/06 00:56:38;;;;;;;2.40;1.80;;;;;;;22.30;59.40;100400.19;4958683;28;124282;-66
2021/07/06 00:59:05;;;;;;;2.40;1.80;;;;;;;22.30;59.52;100389.41;4958843;28;114183;-67
2021/07/06 01:01:32;;;;;;;3.47;1.75;;;;;;;22.32;59.52;100400.88;4957369;28;114327;-66
2021/07/06 01:03:59;;;;;;;2.40;1.70;;;;;;;22.31;59.50;100402.72;4954865;28;124100;-67
2021/07/06 01:06:26;;;;;;;2.50;2.00;;;;;;;22.32;59.49;100404.44;4954139;28;123766;-67
2021/07/06 01:08:53;;;;;;;2.22;1.80;;;;;;;22.32;59.65;100404.44;4954791;28;114361;-67
2021/07/06 01:11:21;;;;;;;4.15;1.90;;;;;;;22.34;59.63;100413.22;4952716;28;114045;-66
2021/07/06 01:13:49;;;;;;;2.00;1.58;;;;;;;22.34;59.62;100402.44;4955483;28;123855;-67
2021/07/06 01:16:17;;;;;;;2.20;1.73;;;;;;;22.34;59.75;100418.63;4950899;28;123791;-67
2021/07/06 01:18:44;;;;;;;2.85;1.80;;;;;;;22.34;59.86;100412.38;4954162;28;114797;-67
2021/07/06 01:21:12;;;;;;;2.00;1.70;;;;;;;22.33;59.67;100416.91;4957879;28;114072;-67
2021/07/06 01:23:39;;;;;;;2.72;1.55;;;;;;;22.34;59.77;100415.94;4956415;28;124121;-67
2021/07/06 01:26:07;;;;;;;2.92;1.65;;;;;;;22.33;59.70;100411.50;4957805;28;124713;-67
2021/07/06 01:28:36;;;;;;;2.80;1.77;;;;;;;22.31;59.90;100399.19;4958040;28;113584;-67
2021/07/06 01:31:04;;;;;;;2.13;1.80;;;;;;;22.27;59.91;100390.56;4957750;28;114417;-67
2021/07/06 01:33:33;;;;;;;2.65;1.60;;;;;;;22.25;60.01;100381.78;4960753;28;123851;-67
2021/07/06 01:36:04;;;;;;;2.92;1.77;;;;;;;22.23;60.14;100383.75;4962996;28;123889;-67
2021/07/06 01:38:32;;;;;;;2.83;1.95;;;;;;;22.21;60.21;100382.19;4956597;28;115420;-67
2021/07/06 01:41:00;;;;;;;2.38;1.88;;;;;;;22.16;60.10;100366.50;4959500;28;113911;-68
2021/07/06 01:43:28;;;;;;;3.13;2.08;;;;;;;22.11;60.16;100358.03;4957192;28;123869;-68
2021/07/06 01:45:55;;;;;;;2.78;2.00;;;;;;;22.02;60.45;100353.56;4956443;28;123692;-67
2021/07/06 01:48:22;;;;;;;4.07;2.00;;;;;;;21.95;60.62;100348.78;4960685;28;114256;-68
2021/07/06 01:50:49;;;;;;;3.10;2.10;;;;;;;21.91;60.59;100339.31;4958272;28;114603;-68
2021/07/06 01:53:18;;;;;;;2.40;2.10;;;;;;;21.85;60.77;100326.47;4956235;28;124018;-68
2021/07/06 01:55:48;;;;;;;2.33;1.80;;;;;;;21.79;60.86;100332.47;4964697;28;124730;-68
2021/07/06 01:58:17;;;;;;;2.80;1.83;;;;;;;21.75;61.07;100331.91;4956669;28;113063;-68
2021/07/06 02:00:48;;;;;;;2.28;1.60;;;;;;;21.73;61.15;100333.09;4955713;28;114515;-68
2021/07/06 02:03:16;;;;;;;2.50;1.90;;;;;;;21.71;60.94;100313.53;4955812;28;123863;-68
2021/07/06 02:05:48;;;;;;;4.13;1.88;;;;;;;21.70;61.14;100311.81;4955089;28;123712;-68
2021/07/06 02:08:18;;;;;;;2.30;1.50;;;;;;;21.69;61.26;100304.75;4956910;28;114297;-68
2021/07/06 02:10:48;;;;;;;3.42;1.67;;;;;;;21.68;61.15;100308.44;4956043;28;116215;-68
2021/07/06 02:13:18;;;;;;;4.97;1.40;;;;;;;21.67;61.28;100306.75;4960737;28;122943;-68
2021/07/06 02:15:49;;;;;;;2.53;1.48;;;;;;;21.68;61.35;100303.03;4955058;28;123503;-68
2021/07/06 02:18:19;;;;;;;2.03;1.40;;;;;;;21.67;61.28;100295.97;4970291;28;113256;-68
2021/07/06 02:20:48;;;;;;;2.08;1.50;;;;;;;21.65;61.23;100292.59;4959957;28;114028;-67
2021/07/06 02:23:16;;;;;;;2.53;1.63;;;;;;;21.62;61.34;100282.13;4961049;28;126581;-68
2021/07/06 02:25:43;;;;;;;1.77;1.50;;;;;;;21.60;61.32;100257.16;4955868;28;123593;-68
2021/07/06 02:28:10;;;;;;;2.78;1.63;;;;;;;21.60;61.41;100262.56;4952842;28;114357;-68
2021/07/06 02:30:38;;;;;;;3.05;1.55;;;;;;;21.57;61.34;100271.81;4954543;28;114954;-68
2021/07/06 02:33:06;;;;;;;3.05;1.55;;;;;;;21.52;61.45;100261.47;4955951;28;124101;-68
2021/07/06 02:35:33;;;;;;;3.97;1.80;;;;;;;21.50;61.54;100258.09;4958451;28;124730;-68
2021/07/06 02:38:01;;;;;;;2.10;1.65;;;;;;;21.48;61.53;100265.50;4960318;28;114597;-68
2021/07/06 02:40:29;;;;;;;3.55;1.80;;;;;;;21.46;61.76;100262.09;4956341;28;113787;-68
2021/07/06 02:42:58;;;;;;;2.70;1.70;;;;;;;21.44;61.60;100242.56;4955216;28;124018;-68
2021/07/06 02:45:26;;;;;;;1.92;1.50;;;;;;;21.43;61.72;100259.69;4956895;28;123699;-68
2021/07/06 02:47:53;;;;;;;1.90;1.60;;;;;;;21.41;61.67;100253.59;4956265;28;114699;-68
2021/07/06 02:50:23;;;;;;;2.53;1.75;;;;;;;21.41;61.77;100250.06;4954892;28;114091;-68
2021/07/06 02:52:51;;;;;;;2.78;1.50;;;;;;;21.37;61.71;100233.34;4955091;28;124720;-68
2021/07/06 02:55:18;;;;;;;2.60;1.73;;;;;;;21.37;62.01;100230.66;4956275;28;123812;-68
2021/07/06 02:57:46;;;;;;;2.42;2.00;;;;;;;21.36;61.81;100215.47;4955023;28;114365;-68
2021/07/06 03:00:23;;;;;;;3.80;1.92;;;;;;;21.36;61.83;100202.00;4951199;28;114488;-68
2021/07/06 03:02:53;;;;;;;2.70;2.13;;;;;;;21.33;61.93;100181.63;4966749;28;123949;-68
2021/07/06 03:05:23;;;;;;;2.88;1.90;;;;;;;21.32;61.97;100184.47;4970856;28;122846;-68
2021/07/06 03:07:52;;;;;;;4.53;2.00;;;;;;;21.31;61.89;100182.81;4957280;28;114497;-68
2021/07/06 03:10:24;;;;;;;2.85;1.92;;;;;;;21.28;61.98;100161.56;4959102;28;113783;-67
2021/07/06 03:12:53;;;;;;;2.90;1.90;;;;;;;21.26;61.92;100179.72;4954100;28;124296;-67
2021/07/06 03:15:26;;;;;;;4.13;1.60;;;;;;;21.23;61.96;100162.03;4953876;28;123912;-68
2021/07/06 03:17:54;;;;;;;2.22;1.70;;;;;;;21.20;62.04;100138.94;4954630;28;115500;-68
2021/07/06 03:20:23;;;;;;;1.98;1.50;;;;;;;21.20;62.04;100138.94;4954496;28;114080;-68
2021/07/06 03:22:51;;;;;;;1.92;1.52;;;;;;;21.22;62.14;100162.19;4958308;28;124796;-67
2021/07/06 03:25:22;;;;;;;2.08;1.40;;;;;;;21.22;62.00;100159.50;4954530;28;124477;-68
2021/07/06 03:27:49;;;;;;;3.03;1.50;;;;;;;21.22;61.97;100156.78;4956908;28;114257;-68
2021/07/06 03:30:31;;;;;;;2.42;1.40;;;;;;;21.22;62.09;100167.56;4961224;28;113789;-68
2021/07/06 03:32:59;;;;;;;2.75;1.50;;;;;;;21.24;62.02;100173.63;4956320;28;123962;-68
2021/07/06 03:35:27;;;;;;;1.98;1.40;;;;;;;21.24;62.00;100165.56;4958194;28;124433;-68
2021/07/06 03:37:56;;;;;;;3.92;1.40;;;;;;;21.25;61.92;100172.63;4955397;28;114381;-68
2021/07/06 03:40:24;;;;;;;1.83;1.40;;;;;;;21.25;61.81;100146.56;4957007;28;114257;-68
2021/07/06 03:42:52;;;;;;;2.55;1.40;;;;;;;21.27;61.96;100155.31;4952868;28;124640;-68
2021/07/06 03:45:21;;;;;;;3.55;1.27;;;;;;;21.27;61.98;100152.63;4954928;28;122746;-67
2021/07/06 03:47:49;;;;;;;2.58;1.30;;;;;;;21.30;61.96;100154.16;4955572;28;114338;-68
2021/07/06 03:50:21;;;;;;;2.63;1.25;;;;;;;21.29;61.92;100147.09;4958660;28;113996;-68
2021/07/06 03:52:50;;;;;;;2.47;1.40;;;;;;;21.31;61.97;100150.47;4955995;28;124320;-68
2021/07/06 03:55:18;;;;;;;2.30;1.30;;;;;;;21.32;61.93;100153.03;4959224;28;123439;-68
2021/07/06 03:57:46;;;;;;;2.13;1.40;;;;;;;21.35;61.88;100146.47;4962909;28;113632;-68
2021/07/06 04:00:23;;;;;;;2.67;1.30;;;;;;;21.35;61.83;100130.31;4959617;28;114249;-68
2021/07/06 04:02:50;;;;;;;1.63;1.30;;;;;;;21.36;61.73;100131.97;4958081;28;124713;-68
2021/07/06 04:05:17;;;;;;;2.58;1.33;;;;;;;21.37;61.98;100128.28;4963832;28;124106;-68
2021/07/06 04:07:45;;;;;;;3.95;1.45;;;;;;;21.40;61.87;100122.59;4962384;28;115340;-68
2021/07/06 04:10:16;;;;;;;2.85;1.30;;;;;;;21.41;61.85;100124.28;4957822;28;115960;-68
2021/07/06 04:12:45;;;;;;;1.73;1.25;;;;;;;21.44;61.83;100123.13;4961991;28;124124;-68
2021/07/06 04:15:14;;;;;;;3.97;1.40;;;;;;;21.45;61.78;100125.69;4965144;28;122960;-68
2021/07/06 04:17:41;;;;;;;3.63;1.25;;;;;;;21.45;61.75;100131.06;4965928;28;114058;-68
2021/07/06 04:20:12;;;;;;;4.20;1.20;;;;;;;21.46;61.81;100127.38;4963185;28;114539;-68
2021/07/06 04:22:40;;;;;;;2.55;1.50;;;;;;;21.49;61.97;100127.09;4963575;28;123560;-68
2021/07/06 04:25:08;;;;;;;3.28;1.60;;;;;;;21.50;61.71;100134.16;4964482;28;124388;-68
2021/07/06 04:27:35;;;;;;;3.78;1.48;;;;;;;21.50;61.73;100134.16;4959384;28;114652;-68
2021/07/06 04:30:05;;;;;;;3.17;1.30;;;;;;;21.52;61.80;100137.53;4961060;28;114726;-68
2021/07/06 04:32:32;;;;;;;2.58;1.20;;;;;;;21.53;61.80;100141.94;4959253;28;123860;-68
2021/07/06 04:34:59;;;;;;;3.35;1.20;;;;;;;21.56;61.69;100144.28;4953805;28;124252;-68
2021/07/06 04:37:26;;;;;;;2.65;1.40;;;;;;;21.58;61.94;100142.28;4958539;28;114361;-68
2021/07/06 04:39:55;;;;;;;1.60;1.10;;;;;;;21.61;61.74;100151.91;4961757;28;113544;-67
2021/07/06 04:42:22;;;;;;;2.55;1.50;;;;;;;21.65;61.74;100152.44;4955821;28;124472;-67
2021/07/06 04:44:50;;;;;;;1.73;1.20;;;;;;;21.69;61.83;100153.81;4960711;28;123957;-67
2021/07/06 04:47:17;;;;;;;1.60;1.35;;;;;;;21.72;61.58;100153.50;4954164;28;114193;-67
2021/07/06 04:49:44;;;;;;;3.22;1.20;;;;;;;21.77;61.56;100159.25;4962406;28;114145;-67
2021/07/06 04:52:12;;;;;;;2.17;1.27;;;;;;;21.80;61.62;100172.44;4956367;28;124591;-67
2021/07/06 04:54:39;;;;;;;2.65;1.40;;;;;;;21.84;61.55;100179.19;4957772;28;123374;-67
2021/07/06 04:57:06;;;;;;;2.72;1.27;;;;;;;21.89;61.39;100171.47;4960538;28;115047;-68
2021/07/06 04:59:33;;;;;;;4.25;1.20;;;;;;;21.94;61.40;100173.69;4960797;28;114794;-67
2021/07/06 05:02:01;;;;;;;2.28;1.08;;;;;;;21.96;61.34;100186.03;4961717;28;123843;-67
2021/07/06 05:04:29;;;;;;;1.67;1.25;;;;;;;22.02;61.21;100186.38;4955655;28;122674;-67
2021/07/06 05:06:57;;;;;;;2.30;1.33;;;;;;;22.05;61.17;100186.06;4956575;28;114127;-68
2021/07/06 05:09:24;;;;;;;3.60;1.20;;;;;;;22.08;61.08;100191.13;4957558;28;114088;-67
2021/07/06 05:11:52;;;;;;;3.03;1.30;;;;;;;22.13;61.00;100194.19;4951495;28;124250;-68
2021/07/06 05:14:19;;;;;;;1.77;1.20;;;;;;;22.16;60.74;100199.25;4956954;28;123906;-67
2021/07/06 05:16:46;;;;;;;3.35;1.23;;;;;;;22.20;60.81;100211.41;4963117;28;115325;-67
2021/07/06 05:19:13;;;;;;;2.47;1.15;;;;;;;22.23;60.73;100200.31;4954708;28;114962;-66
2021/07/06 05:21:41;;;;;;;1.58;1.08;;;;;;;22.27;60.51;100204.41;4958039;28;123311;-67
2021/07/06 05:24:09;;;;;;;3.00;1.20;;;;;;;22.32;60.80;100204.78;4955149;28;123731;-67
2021/07/06 05:26:36;;;;;;;1.98;1.08;;;;;;;22.38;60.61;100207.81;4960827;28;114622;-68
2021/07/06 05:29:04;;;;;;;2.67;1.17;;;;;;;22.43;60.71;100205.50;4963945;28;112838;-65
2021/07/06 05:31:31;;;;;;;3.13;1.00;;;;;;;22.48;60.55;100203.16;4962576;28;124712;-66
2021/07/06 05:33:59;;;;;;;3.33;1.23;;;;;;;22.52;60.63;100209.91;4960577;28;124349;-67
2021/07/06 05:36:26;;;;;;;1.77;1.38;;;;;;;22.56;60.63;100211.28;4968645;28;114522;-67
2021/07/06 05:38:53;;;;;;;3.22;1.10;;;;;;;22.60;60.54;100201.84;4964457;28;114250;-67
2021/07/06 05:41:21;;;;;;;3.05;2.45;;;;;;;22.64;60.56;100176.25;4952777;28;123982;-66
2021/07/06 05:43:48;;;;;;;1.65;1.13;;;;;;;22.67;60.36;100181.28;4962628;28;123461;-66
2021/07/06 05:46:16;;;;;;;2.65;1.48;;;;;;;22.70;60.25;100169.34;4967720;28;115048;-66
2021/07/06 05:48:43;;;;;;;3.30;1.20;;;;;;;22.70;60.33;100170.19;4959984;28;115448;-67
2021/07/06 05:51:10;;;;;;;2.63;1.40;;;;;;;22.72;60.26;100151.13;4957635;28;124827;-68
2021/07/06 05:53:39;;;;;;;1.90;1.30;;;;;;;22.72;60.16;100173.56;4960921;28;123974;-69
2021/07/06 05:56:06;;;;;;;2.45;1.38;;;;;;;22.72;60.03;100181.66;4958266;28;114376;-68
2021/07/06 05:58:33;;;;;;;2.28;1.27;;;;;;;22.73;60.19;100164.47;4962858;28;114189;-68
2021/07/06 06:01:00;;;;;;;2.58;1.20;;;;;;;22.76;60.04;100184.03;4962533;28;124271;-68
2021/07/06 06:03:28;;;;;;;1.75;1.20;;;;;;;22.77;60.04;100177.59;4961973;28;122910;-67
2021/07/06 06:05:55;;;;;;;3.72;1.40;;;;;;;22.78;60.16;100182.00;4956577;28;114196;-67
2021/07/06 06:08:22;;;;;;;3.70;1.40;;;;;;;22.79;60.01;100175.59;4957583;28;113959;-67
2021/07/06 06:10:49;;;;;;;1.83;1.27;;;;;;;22.81;59.81;100176.25;4955780;28;124136;-68
2021/07/06 06:13:17;;;;;;;2.90;1.48;;;;;;;22.82;59.81;100167.16;4958014;28;125547;-68
2021/07/06 06:15:44;;;;;;;2.47;1.50;;;;;;;22.83;59.88;100163.44;4960490;28;114896;-68
2021/07/06 06:18:12;;;;;;;2.00;1.38;;;;;;;22.85;59.92;100172.22;4956009;28;114210;-68
2021/07/06 06:20:39;;;;;;;4.03;1.65;;;;;;;22.88;60.01;100166.50;4953847;28;124763;-68
2021/07/06 06:23:07;;;;;;;2.25;1.40;;;;;;;22.88;59.94;100161.94;4955992;28;123815;-68
2021/07/06 06:25:34;;;;;;;3.17;1.30;;;;;;;22.91;60.18;100158.06;4961730;28;114535;-68
2021/07/06 06:28:01;;;;;;;2.63;1.65;;;;;;;22.92;59.93;100157.03;4957410;28;113828;-68
2021/07/06 06:30:28;;;;;;;4.00;1.40;;;;;;;22.94;59.96;100165.81;4956953;28;123783;-68
2021/07/06 06:32:56;;;;;;;2.80;1.40;;;;;;;22.97;59.80;100149.31;4953136;28;124524;-68
2021/07/06 06:35:23;;;;;;;1.85;1.20;;;;;;;23.00;59.80;100148.97;4956322;28;116397;-68
2021/07/06 06:37:50;;;;;;;2.13;1.20;;;;;;;23.02;59.78;100157.75;4953925;28;113859;-68
2021/07/06 06:40:18;;;;;;;3.10;1.40;;;;;;;23.05;59.92;100162.00;4957298;28;124154;-68
2021/07/06 06:42:45;;;;;;;2.63;1.20;;;;;;;23.07;59.59;100158.09;4957167;28;123903;-68
2021/07/06 06:45:13;;;;;;;2.80;1.40;;;;;;;23.11;59.59;100162.19;4958800;28;114120;-68
2021/07/06 06:47:41;;;;;;;3.35;1.52;;;;;;;23.13;59.50;100165.56;4961700;28;115077;-68
2021/07/06 06:50:11;;;;;;;2.10;1.30;;;;;;;23.18;59.52;100169.63;4957136;28;124470;-68
2021/07/06 06:52:39;;;;;;;2.45;1.00;;;;;;;23.20;59.48;100173.00;4960183;28;123148;-68
2021/07/06 06:55:07;;;;;;;2.80;1.10;;;;;;;23.23;59.41;100175.38;4958232;28;114321;-67
2021/07/06 06:57:34;;;;;;;2.55;1.40;;;;;;;23.28;59.26;100178.38;4960907;28;114666;-68
2021/07/06 07:00:04;;;;;;;1.38;0.90;;;;;;;23.30;58.99;100170.97;4963058;28;123806;-66
2021/07/06 07:02:32;;;;;;;1.30;0.85;;;;;;;23.35;58.89;100171.31;4959127;28;124593;-66
2021/07/06 07:05:00;;;;;;;3.38;0.90;;;;;;;23.37;58.59;100166.56;4960230;28;115142;-66
2021/07/06 07:07:28;;;;;;;2.10;1.05;;;;;;;23.40;58.58;100166.25;4952755;28;114198;-66
2021/07/06 07:09:57;;;;;;;2.00;0.90;;;;;;;23.44;58.17;100167.59;4959675;28;124070;-66
2021/07/06 07:12:24;;;;;;;0.95;0.70;;;;;;;23.48;57.92;100166.22;4952924;28;123861;-66
2021/07/06 07:14:54;;;;;;;1.83;0.95;;;;;;;23.51;57.62;100182.13;4965037;28;113271;-66
2021/07/06 07:17:22;;;;;;;0.93;0.70;;;;;;;23.55;57.36;100162.88;4967241;28;113732;-66
2021/07/06 07:20:10;;;;;;;1.50;0.65;;;;;;;23.56;57.23;100165.38;4962489;28;124237;-69
2021/07/06 07:22:37;;;;;;;1.23;0.77;;;;;;;23.59;56.97;100175.03;4960556;28;123771;-68
2021/07/06 07:25:06;;;;;;;1.75;1.05;;;;;;;23.60;56.90;100176.69;4994631;22;115667;-77
2021/07/06 07:27:33;;;;;;;2.38;0.68;;;;;;;23.61;56.75;100184.66;4980203;28;112504;-76
2021/07/06 07:30:00;;;;;;;1.83;0.73;;;;;;;23.63;56.90;100176.38;5006080;28;124375;-76
2021/07/06 07:32:27;;;;;;;1.30;0.77;;;;;;;23.65;56.76;100190.56;5003387;28;124162;-77
2021/07/06 07:34:54;;;;;;;1.30;1.00;;;;;;;23.67;56.60;100188.53;4991085;28;114108;-77
2021/07/06 07:37:25;;;;;;;1.13;0.80;;;;;;;23.68;56.21;100201.03;4993597;28;114613;-78
2021/07/06 07:39:52;;;;;;;1.50;0.70;;;;;;;23.69;56.24;100195.44;4991528;28;123302;-76
2021/07/06 07:42:20;;;;;;;3.08;0.98;;;;;;;23.71;55.96;100206.97;4979331;28;123958;-77
2021/07/06 07:44:47;;;;;;;1.63;0.82;;;;;;;23.71;55.91;100195.28;4985702;28;114705;-76
2021/07/06 07:47:15;;;;;;;1.90;0.90;;;;;;;23.74;56.01;100211.16;4997867;28;114080;-75
2021/07/06 07:49:42;;;;;;;2.25;0.85;;;;;;;23.76;55.65;100209.13;4991712;28;122730;-76
2021/07/06 07:52:09;;;;;;;1.33;0.73;;;;;;;23.79;55.66;100218.78;4981872;28;123127;-77
2021/07/06 07:54:36;;;;;;;1.85;0.70;;;;;;;23.81;55.67;100212.22;4984523;28;112964;-76
2021/07/06 07:57:07;;;;;;;3.47;0.90;;;;;;;23.85;55.62;100210.84;4980215;28;112987;-77
2021/07/06 07:59:35;;;;;;;1.60;1.00;;;;;;;23.88;55.52;100218.63;4983406;28;124265;-76
2021/07/06 08:02:02;;;;;;;1.67;0.70;;;;;;;23.95;55.42;100223.34;4976701;28;124006;-76
2021/07/06 08:04:29;;;;;;;1.08;0.75;;;;;;;23.97;55.48;100232.13;4986533;28;114473;-76
2021/07/06 08:06:56;;;;;;;1.90;0.82;;;;;;;24.03;55.51;100236.84;4975583;28;113518;-77
2021/07/06 08:09:27;;;;;;;1.58;1.10;;;;;;;24.06;55.25;100237.34;4974781;28;123787;-76
2021/07/06 08:11:54;;;;;;;1.95;0.90;;;;;;;24.09;54.72;100230.75;4975411;28;124647;-77
2021/07/06 08:14:21;;;;;;;1.90;0.68;;;;;;;24.09;54.75;100233.44;4980285;28;115354;-78
2021/07/06 08:16:51;;;;;;;0.98;0.60;;;;;;;24.09;54.16;100236.16;4966298;28;114449;-77
2021/07/06 08:19:18;;;;;;;0.68;0.50;;;;;;;24.08;53.66;100239.91;4979048;28;123934;-77
2021/07/06 08:21:45;;;;;;;0.90;0.50;;;;;;;24.04;53.63;100244.81;4952635;28;122833;-78
2021/07/06 08:24:12;;;;;;;1.92;0.55;;;;;;;24.04;53.96;100249.38;4973170;28;114678;-77
2021/07/06 08:26:39;;;;;;;1.30;0.60;;;;;;;24.07;53.98;100232.78;4971952;28;113452;-76
2021/07/06 08:29:06;;;;;;;1.23;0.60;;;;;;;24.13;53.92;100248.34;4971407;28;124257;-77
2021/07/06 08:31:33;;;;;;;3.53;0.70;;;;;;;24.21;54.04;100251.03;4973417;28;123722;-76
2021/07/06 08:34:01;;;;;;;1.60;0.70;;;;;;;24.33;53.67;100253.38;4959223;28;115160;-77
2021/07/06 08:36:29;;;;;;;0.93;0.50;;;;;;;24.45;53.98;100252.81;4973351;28;114267;-76
2021/07/06 08:38:56;;;;;;;1.30;0.73;;;;;;;24.64;53.63;100246.19;4974383;28;123874;-77
2021/07/06 08:41:23;;;;;;;1.58;0.93;;;;;;;24.78;53.15;100268.97;4993061;28;124316;-78
2021/07/06 08:43:50;;;;;;;2.00;0.70;;;;;;;24.88;52.74;100247.06;4973914;28;114040;-77
2021/07/06 08:46:19;;;;;;;1.60;0.70;;;;;;;24.97;52.49;100256.84;4975439;28;113625;-76
2021/07/06 08:48:49;;;;;;;2.17;0.80;;;;;;;25.05;52.00;100248.69;4971918;28;124176;-76
2021/07/06 08:51:19;;;;;;;1.15;0.90;;;;;;;25.13;51.79;100260.50;4973708;28;124197;-76
2021/07/06 08:53:46;;;;;;;1.23;0.70;;;;;;;25.17;51.39;100272.69;4976921;28;114281;-76
2021/07/06 08:56:14;;;;;;;1.70;0.80;;;;;;;25.20;51.14;100266.88;4968347;28;114318;-76
2021/07/06 08:58:41;;;;;;;1.58;0.70;;;;;;;25.23;51.12;100266.56;4979602;28;123786;-75
2021/07/06 09:01:09;;;;;;;1.85;0.70;;;;;;;25.29;51.01;100270.44;4971583;28;121789;-76
2021/07/06 09:03:52;;;;;;;1.85;0.70;;;;;;;25.32;51.24;100270.91;4979873;28;114703;-77
2021/07/06 09:06:21;;;;;;;1.10;0.70;;;;;;;25.36;50.91;100283.09;4959350;28;113582;-77
2021/07/06 09:08:52;;;;;;;1.48;0.80;;;;;;;25.35;50.22;100280.56;4971084;28;124639;-77
2021/07/06 09:11:20;;;;;;;1.10;0.80;;;;;;;25.31;50.21;100279.22;4970011;28;123966;-76
2021/07/06 09:13:49;;;;;;;1.13;0.60;;;;;;;25.28;50.04;100274.16;4960925;28;114219;-77
2021/07/06 09:16:25;;;;;;;1.38;0.70;;;;;;;25.25;49.71;100267.22;4972097;28;113526;-78
2021/07/06 09:18:52;;;;;;;0.75;0.57;;;;;;;25.26;49.99;100266.22;4967978;28;124334;-78
2021/07/06 09:21:21;;;;;;;3.80;0.77;;;;;;;25.31;49.98;100258.38;4971499;28;124147;-77
2021/07/06 09:23:49;;;;;;;0.90;0.70;;;;;;;25.41;49.88;100267.13;4971464;28;114380;-77
2021/07/06 09:26:25;;;;;;;1.83;0.70;;;;;;;25.53;49.84;100261.28;4970897;28;113209;-78
2021/07/06 09:28:55;;;;;;;1.13;0.73;;;;;;;25.63;49.55;100267.31;4969612;28;122965;-76
2021/07/06 09:31:29;;;;;;;1.55;0.70;;;;;;;25.76;49.23;100267.53;4971820;28;123938;-77
2021/07/06 09:34:02;;;;;;;0.98;0.60;;;;;;;25.90;49.02;100278.59;4970506;28;113307;-77
2021/07/06 09:36:43;;;;;;;1.10;0.60;;;;;;;26.00;48.34;100268.38;4970995;28;112984;-77
2021/07/06 09:39:22;;;;;;;2.22;0.90;;;;;;;26.06;47.55;100272.22;4970469;28;123808;-79
2021/07/06 09:41:57;;;;;;;0.90;0.65;;;;;;;26.10;47.28;100271.66;4970852;28;124443;-80
2021/07/06 09:44:28;;;;;;;1.73;0.60;;;;;;;26.14;46.95;100259.41;4978878;28;114285;-78
2021/07/06 09:47:04;;;;;;;2.28;0.70;;;;;;;26.18;47.04;100260.75;4955960;28;113929;-79
2021/07/06 09:49:33;;;;;;;1.33;0.63;;;;;;;26.27;47.16;100271.50;4969053;28;124165;-78
2021/07/06 09:52:15;;;;;;;2.00;0.95;;;;;;;26.34;46.98;100277.88;4970743;28;123818;-79
2021/07/06 09:54:49;;;;;;;1.00;0.70;;;;;;;26.38;46.52;100271.88;4979280;28;114720;-79
2021/07/06 09:57:29;;;;;;;2.60;0.88;;;;;;;26.38;46.23;100277.31;4970320;28;115178;-78
2021/07/06 09:59:57;;;;;;;2.45;0.90;;;;;;;26.40;46.21;100280.69;4966233;28;124055;-79
2021/07/06 10:02:26;;;;;;;2.20;0.82;;;;;;;26.44;46.14;100281.16;4978406;28;123109;-79
2021/07/06 10:04:55;;;;;;;1.00;0.70;;;;;;;26.54;46.30;100287.16;4979444;28;113404;-79
2021/07/06 10:07:23;;;;;;;2.83;0.88;;;;;;;26.60;45.55;100291.88;4963431;28;113817;-79
2021/07/06 10:09:51;;;;;;;1.02;0.70;;;;;;;26.60;45.51;100297.31;4967048;28;124436;-78
2021/07/06 10:12:20;;;;;;;2.42;0.80;;;;;;;26.55;45.00;100302.41;4965905;28;124280;-79
2021/07/06 10:14:48;;;;;;;3.17;0.70;;;;;;;26.47;45.05;100302.53;4957856;28;113531;-79
2021/07/06 10:17:35;;;;;;;1.35;0.70;;;;;;;26.38;45.18;100299.03;4964127;28;114038;-79
2021/07/06 10:20:11;;;;;;;1.50;0.70;;;;;;;26.33;45.27;100311.47;4977239;28;123931;-79
2021/07/06 10:22:38;;;;;;;3.15;0.90;;;;;;;26.27;45.23;100295.94;4967479;28;123753;-78
2021/07/06 10:25:11;;;;;;;1.60;0.80;;;;;;;26.22;45.29;100316.34;4968206;28;113935;-79
2021/07/06 10:27:43;;;;;;;2.38;0.80;;;;;;;26.18;44.75;100312.31;4964934;28;113418;-78
2021/07/06 10:30:15;;;;;;;1.80;0.70;;;;;;;26.11;44.98;100324.94;4965065;28;124671;-78
2021/07/06 10:32:44;;;;;;;1.15;0.70;;;;;;;26.04;44.81;100318.53;4968715;28;124297;-78
2021/07/06 10:35:14;;;;;;;2.05;0.70;;;;;;;26.00;45.30;100326.22;4962071;28;113890;-78
2021/07/06 10:37:41;;;;;;;1.42;0.60;;;;;;;25.96;45.18;100333.03;4965969;28;113124;-79
2021/07/06 10:40:20;;;;;;;1.67;0.82;;;;;;;25.89;44.98;100342.06;4969634;28;124612;-78
2021/07/06 10:42:51;;;;;;;2.00;0.93;;;;;;;25.84;45.18;100351.59;4978808;28;123057;-79
2021/07/06 10:45:32;;;;;;;2.13;0.80;;;;;;;25.80;45.26;100343.97;4975357;28;115089;-78
2021/07/06 10:47:59;;;;;;;3.60;0.80;;;;;;;25.80;45.80;100349.41;4964215;28;114870;-78
2021/07/06 10:50:29;;;;;;;2.85;0.90;;;;;;;25.82;45.31;100353.63;4971219;28;123879;-79
2021/07/06 10:53:15;;;;;;;4.00;0.80;;;;;;;25.84;45.30;100361.56;4967646;28;123665;-79
2021/07/06 10:55:44;;;;;;;2.20;0.80;;;;;;;25.89;45.81;100363.75;4975304;28;114675;-79
2021/07/06 10:58:51;;;;;;;3.08;0.95;;;;;;;25.99;45.63;100358.94;4973241;28;113819;-79
2021/07/06 11:01:36;;;;;;;2.83;0.80;;;;;;;26.12;45.38;100359.19;4975509;28;123647;-78
2021/07/06 11:04:13;;;;;;;1.30;0.75;;;;;;;26.20;44.75;100375.41;4967716;28;96764;-78
2021/07/06 11:06:43;;;;;;;3.83;0.80;;;;;;;26.25;44.24;100374.00;4974240;28;114378;-77
2021/07/06 11:09:31;;;;;;;1.75;0.73;;;;;;;26.25;44.09;100379.44;4961671;28;114322;-77
2021/07/06 11:12:24;;;;;;;2.40;0.70;;;;;;;26.18;43.66;100385.63;4970417;28;123148;-77
2021/07/06 11:15:03;;;;;;;3.53;0.82;;;;;;;26.13;43.46;100388.03;4960405;28;123510;-76
2021/07/06 11:17:35;;;;;;;4.22;0.93;;;;;;;26.12;43.11;100391.75;4977079;28;114568;-78
2021/07/06 11:20:02;;;;;;;2.70;0.80;;;;;;;26.14;43.28;100411.41;4969085;28;114378;-77
2021/07/06 11:22:39;;;;;;;3.17;0.88;;;;;;;26.19;43.01;100402.75;4956834;28;125273;-77
2021/07/06 11:25:27;;;;;;;3.25;0.88;;;;;;;26.22;42.82;100407.81;4973067;28;124577;-76
2021/07/06 11:28:13;;;;;;;2.90;0.90;;;;;;;26.25;42.99;100406.59;4959662;28;114112;-77